Time;durP1;ratioP1;P1;durP2;ratioP2;P2;SDS_P1;SDS_P2;PMS_P1;PMS_P2;Temp;Humidity;BMP_temperature;BMP_pressure;BME280_temperature;BME280_humidity;BME280_pressure;Samples;Min_cycle;Max_cycle;Signal;HPM_P1;HPM_P2
2021/09/17 00:00:10;;;;;;;4.07;0.77;;;15.60;99.90;;;;;;5081245;28;20107;-67
2021/09/17 00:02:37;;;;;;;2.10;0.57;;;15.60;99.90;;;;;;5078520;28;20559;-67
2021/09/17 00:05:04;;;;;;;3.88;0.55;;;15.60;99.90;;;;;;5081336;28;20081;-67
2021/09/17 00:07:30;;;;;;;2.45;0.70;;;15.60;99.90;;;;;;5080542;28;20375;-67
2021/09/17 00:09:56;;;;;;;2.17;0.60;;;15.60;99.90;;;;;;5064023;28;20058;-67
2021/09/17 00:12:22;;;;;;;4.28;0.85;;;15.60;99.90;;;;;;5082384;28;20435;-67
2021/09/17 00:14:48;;;;;;;1.85;0.50;;;15.70;99.90;;;;;;5081326;28;20115;-67
2021/09/17 00:17:14;;;;;;;4.70;0.70;;;15.70;99.90;;;;;;5080208;28;20112;-67
2021/09/17 00:19:40;;;;;;;2.45;0.55;;;15.70;99.90;;;;;;5082301;28;20378;-67
2021/09/17 00:22:05;;;;;;;3.22;0.68;;;15.70;99.90;;;;;;5084901;28;20028;-67
2021/09/17 00:24:32;;;;;;;6.47;0.80;;;15.70;99.90;;;;;;5086538;28;20024;-67
2021/09/17 00:26:59;;;;;;;2.28;0.55;;;15.70;99.90;;;;;;5084203;28;20099;-67
2021/09/17 00:29:25;;;;;;;3.42;0.60;;;15.60;99.80;;;;;;5083777;28;20021;-67
2021/09/17 00:31:51;;;;;;;1.45;0.60;;;15.60;99.80;;;;;;5084122;28;20024;-67
2021/09/17 00:34:17;;;;;;;4.03;0.50;;;15.60;99.80;;;;;;5084453;28;20043;-67
2021/09/17 00:36:43;;;;;;;4.30;0.50;;;15.60;99.80;;;;;;5085076;28;20032;-67
2021/09/17 00:39:12;;;;;;;0.80;0.28;;;15.60;99.40;;;;;;5085850;28;20028;-66
2021/09/17 00:41:40;;;;;;;1.42;0.43;;;15.60;99.80;;;;;;5083337;28;20032;-67
2021/09/17 00:44:06;;;;;;;1.75;0.47;;;15.60;99.90;;;;;;5083421;28;20020;-67
2021/09/17 00:46:31;;;;;;;2.63;0.32;;;15.60;99.90;;;;;;5084016;28;20572;-66
2021/09/17 00:48:57;;;;;;;2.60;0.45;;;15.70;99.90;;;;;;5085740;28;20020;-67
2021/09/17 00:51:23;;;;;;;2.70;0.68;;;15.70;99.90;;;;;;5085144;28;20405;-67
2021/09/17 00:53:49;;;;;;;1.80;0.47;;;15.70;99.90;;;;;;5083500;28;20032;-67
2021/09/17 00:56:15;;;;;;;2.65;0.60;;;15.70;99.90;;;;;;5083652;28;20497;-67
2021/09/17 00:58:41;;;;;;;4.53;0.73;;;15.70;99.90;;;;;;5084899;28;20398;-67
2021/09/17 01:01:07;;;;;;;2.00;0.40;;;15.60;99.90;;;;;;5084672;28;20024;-67
2021/09/17 01:03:32;;;;;;;2.25;0.65;;;15.60;99.90;;;;;;5065261;28;20047;-67
2021/09/17 01:06:01;;;;;;;2.05;0.60;;;15.60;99.90;;;;;;5084998;28;20035;-67
2021/09/17 01:08:27;;;;;;;1.58;0.40;;;15.60;99.90;;;;;;5083478;28;20063;-67
2021/09/17 01:10:52;;;;;;;3.15;0.75;;;15.60;99.90;;;;;;5086472;28;20118;-67
2021/09/17 01:13:19;;;;;;;2.08;0.50;;;15.60;99.90;;;;;;5064170;28;20048;-67
2021/09/17 01:15:44;;;;;;;1.83;0.40;;;15.60;99.90;;;;;;5084727;28;20070;-67
2021/09/17 01:18:10;;;;;;;2.55;0.40;;;15.60;99.80;;;;;;5083634;28;20032;-67
2021/09/17 01:20:36;;;;;;;3.47;0.90;;;15.60;99.70;;;;;;5084270;28;20373;-67
2021/09/17 01:23:02;;;;;;;1.42;0.32;;;15.60;99.50;;;;;;5084597;28;20509;-67
2021/09/17 01:25:27;;;;;;;2.50;0.47;;;15.60;99.60;;;;;;5086755;28;20039;-67
2021/09/17 01:27:53;;;;;;;6.05;1.05;;;15.60;99.30;;;;;;5087765;28;20409;-67
2021/09/17 01:30:20;;;;;;;3.38;0.63;;;15.50;99.20;;;;;;5085683;28;20517;-66
2021/09/17 01:32:47;;;;;;;3.75;0.60;;;15.40;99.30;;;;;;5082530;28;20158;-67
2021/09/17 01:35:16;;;;;;;1.70;0.43;;;15.50;99.30;;;;;;5082253;28;20122;-67
2021/09/17 01:37:43;;;;;;;2.63;0.70;;;15.40;99.50;;;;;;5084352;28;20597;-67
2021/09/17 01:40:10;;;;;;;3.53;0.50;;;15.40;99.40;;;;;;5085497;28;20508;-67
2021/09/17 01:42:36;;;;;;;2.90;0.40;;;15.40;99.30;;;;;;5084325;28;20040;-67
2021/09/17 01:45:03;;;;;;;5.65;0.50;;;15.40;99.40;;;;;;5083956;28;20028;-67
2021/09/17 01:47:29;;;;;;;3.25;0.68;;;15.40;99.60;;;;;;5086531;28;20032;-67
2021/09/17 01:49:55;;;;;;;3.50;0.55;;;15.40;99.30;;;;;;5086382;28;20028;-67
2021/09/17 01:52:20;;;;;;;3.97;0.50;;;15.40;99.10;;;;;;5084712;28;20036;-67
2021/09/17 01:54:46;;;;;;;0.57;0.30;;;15.40;99.30;;;;;;5084113;28;20043;-67
2021/09/17 01:57:12;;;;;;;2.28;0.40;;;15.40;99.30;;;;;;5086992;28;20024;-67
2021/09/17 01:59:38;;;;;;;4.25;0.63;;;15.40;99.20;;;;;;5083947;28;20479;-66
2021/09/17 02:02:04;;;;;;;4.00;0.60;;;15.40;99.40;;;;;;5085583;28;20043;-67
2021/09/17 02:04:29;;;;;;;5.82;1.00;;;15.40;99.30;;;;;;5082721;28;20033;-67
2021/09/17 02:06:55;;;;;;;1.83;0.30;;;15.40;99.00;;;;;;5082729;28;20031;-67
2021/09/17 02:09:21;;;;;;;1.70;0.50;;;15.40;99.10;;;;;;5082221;28;20056;-66
2021/09/17 02:11:47;;;;;;;3.97;0.50;;;15.40;99.10;;;;;;5084712;28;20024;-66
2021/09/17 02:14:13;;;;;;;4.13;0.50;;;15.40;99.10;;;;;;5082155;28;20037;-67
2021/09/17 02:16:39;;;;;;;2.22;0.40;;;15.40;99.10;;;;;;5084063;28;20024;-66
2021/09/17 02:19:05;;;;;;;1.65;0.50;;;15.40;99.20;;;;;;5083438;28;20047;-67
2021/09/17 02:21:31;;;;;;;4.72;0.55;;;15.40;99.10;;;;;;5083001;28;20739;-66
2021/09/17 02:23:57;;;;;;;3.97;0.77;;;15.40;99.10;;;;;;5083597;28;20032;-66
2021/09/17 02:26:23;;;;;;;4.45;0.73;;;15.50;99.10;;;;;;5086473;28;20046;-66
2021/09/17 02:28:49;;;;;;;2.63;0.43;;;15.40;98.90;;;;;;5081916;28;20055;-66
2021/09/17 02:31:15;;;;;;;4.60;0.77;;;15.40;98.70;;;;;;5082409;28;20028;-66
2021/09/17 02:33:41;;;;;;;2.40;0.50;;;15.40;98.80;;;;;;5082382;28;20493;-67
2021/09/17 02:36:07;;;;;;;4.90;0.88;;;15.40;98.60;;;;;;5080133;28;20086;-65
2021/09/17 02:38:33;;;;;;;2.88;0.60;;;15.40;98.60;;;;;;5083601;28;20058;-66
2021/09/17 02:40:58;;;;;;;5.05;0.63;;;15.40;98.60;;;;;;5082608;28;20697;-66
2021/09/17 02:43:24;;;;;;;5.07;0.68;;;15.40;98.80;;;;;;5080444;28;20391;-67
2021/09/17 02:45:50;;;;;;;3.38;0.60;;;15.40;98.80;;;;;;5081191;28;20072;-67
2021/09/17 02:48:16;;;;;;;3.25;0.93;;;15.30;98.30;;;;;;5081139;28;20375;-66
2021/09/17 02:50:42;;;;;;;5.00;0.43;;;15.30;98.50;;;;;;5084450;28;20058;-66
2021/09/17 02:53:07;;;;;;;1.95;0.55;;;15.30;98.40;;;;;;5080896;28;20043;-67
2021/09/17 02:55:33;;;;;;;2.67;0.40;;;15.30;98.30;;;;;;5081719;28;20117;-67
2021/09/17 02:58:03;;;;;;;2.92;0.73;;;15.30;98.40;;;;;;5080700;28;20035;-67
2021/09/17 03:00:29;;;;;;;1.33;0.30;;;15.40;98.40;;;;;;5080786;28;20063;-67
2021/09/17 03:02:55;;;;;;;2.03;0.40;;;15.40;98.50;;;;;;5081677;28;20392;-67
2021/09/17 03:05:21;;;;;;;2.50;0.77;;;15.40;98.20;;;;;;5080977;28;20047;-67
2021/09/17 03:07:48;;;;;;;1.75;0.50;;;15.30;98.20;;;;;;5083379;28;20024;-66
2021/09/17 03:10:14;;;;;;;0.38;0.30;;;15.30;98.30;;;;;;5081102;28;20032;-67
2021/09/17 03:12:40;;;;;;;4.78;0.70;;;15.30;98.00;;;;;;5081408;28;20093;-66
2021/09/17 03:15:07;;;;;;;2.15;0.50;;;15.30;98.30;;;;;;5080582;28;20418;-67
2021/09/17 03:17:33;;;;;;;4.35;0.90;;;15.30;98.10;;;;;;5082460;28;20097;-67
2021/09/17 03:19:59;;;;;;;1.83;0.40;;;15.30;98.00;;;;;;5084770;28;20059;-67
2021/09/17 03:22:24;;;;;;;1.35;0.40;;;15.30;98.00;;;;;;5084208;28;20066;-66
2021/09/17 03:24:50;;;;;;;1.52;0.50;;;15.30;97.80;;;;;;5082739;28;20031;-67
2021/09/17 03:27:16;;;;;;;4.47;0.73;;;15.20;98.00;;;;;;5080653;28;20576;-67
2021/09/17 03:29:41;;;;;;;3.60;0.70;;;15.20;98.00;;;;;;5079919;28;20029;-67
2021/09/17 03:32:08;;;;;;;2.45;0.50;;;15.20;97.80;;;;;;5081345;28;20510;-67
2021/09/17 03:34:33;;;;;;;1.58;0.32;;;15.30;98.10;;;;;;5080479;28;20436;-67
2021/09/17 03:36:59;;;;;;;2.40;0.45;;;15.20;97.90;;;;;;5080554;28;20028;-67
2021/09/17 03:39:25;;;;;;;6.10;0.55;;;15.30;98.00;;;;;;5082878;28;20040;-67
2021/09/17 03:41:51;;;;;;;1.55;0.45;;;15.30;98.00;;;;;;5081093;28;20036;-67
2021/09/17 03:44:17;;;;;;;4.28;0.50;;;15.30;98.00;;;;;;5080393;28;20105;-67
2021/09/17 03:46:43;;;;;;;2.50;0.70;;;15.20;97.80;;;;;;5081027;28;20024;-67
2021/09/17 03:49:10;;;;;;;3.38;1.05;;;15.20;97.80;;;;;;5082866;28;20024;-67
2021/09/17 03:51:36;;;;;;;2.70;0.50;;;15.20;97.90;;;;;;5082682;28;20085;-66
2021/09/17 03:54:01;;;;;;;3.25;0.30;;;15.20;97.70;;;;;;5079619;28;20021;-67
2021/09/17 03:56:27;;;;;;;3.15;0.40;;;15.20;97.90;;;;;;5081884;28;20040;-67
2021/09/17 03:58:53;;;;;;;3.58;0.50;;;15.20;98.00;;;;;;5081081;28;20029;-67
2021/09/17 04:01:19;;;;;;;1.38;0.70;;;15.20;97.80;;;;;;5080000;28;20028;-66
2021/09/17 04:03:44;;;;;;;1.15;0.25;;;15.20;97.80;;;;;;5077121;28;20040;-67
2021/09/17 04:06:10;;;;;;;2.92;0.52;;;15.20;97.90;;;;;;5080698;28;20028;-67
2021/09/17 04:08:36;;;;;;;0.82;0.30;;;15.20;97.50;;;;;;5080071;28;20036;-67
2021/09/17 04:11:01;;;;;;;2.20;0.40;;;15.10;97.50;;;;;;5080400;28;20043;-67
2021/09/17 04:13:28;;;;;;;1.50;0.30;;;15.10;97.50;;;;;;5080255;28;20047;-67
2021/09/17 04:15:53;;;;;;;1.58;0.40;;;15.10;97.30;;;;;;5080050;28;20084;-67
2021/09/17 04:18:19;;;;;;;1.08;0.30;;;15.00;97.20;;;;;;5079936;28;20020;-67
2021/09/17 04:20:45;;;;;;;0.63;0.30;;;15.00;97.40;;;;;;5080667;28;20036;-67
2021/09/17 04:23:10;;;;;;;3.88;0.40;;;15.10;97.40;;;;;;5080188;28;20386;-66
2021/09/17 04:25:36;;;;;;;1.83;0.30;;;15.10;97.30;;;;;;5079364;28;21778;-67
2021/09/17 04:28:02;;;;;;;0.75;0.35;;;15.00;96.80;;;;;;5079727;28;21864;-67
2021/09/17 04:30:28;;;;;;;2.63;0.63;;;15.00;97.50;;;;;;5078656;28;20956;-66
2021/09/17 04:32:54;;;;;;;1.35;0.40;;;15.00;97.20;;;;;;5074607;28;20082;-67
2021/09/17 04:35:19;;;;;;;1.27;0.30;;;15.00;97.40;;;;;;5076936;28;20067;-68
2021/09/17 04:37:48;;;;;;;1.25;0.32;;;15.00;97.40;;;;;;5079393;28;20056;-69
2021/09/17 04:40:16;;;;;;;0.50;0.35;;;15.00;97.30;;;;;;5061708;28;20605;-67
2021/09/17 04:42:42;;;;;;;0.98;0.30;;;15.00;97.60;;;;;;5080148;28;20038;-68
2021/09/17 04:45:09;;;;;;;1.52;0.20;;;15.00;97.30;;;;;;5078242;28;20032;-67
2021/09/17 04:47:35;;;;;;;1.80;0.40;;;14.90;96.60;;;;;;5076040;28;20695;-67
2021/09/17 04:50:03;;;;;;;1.67;0.40;;;15.00;96.90;;;;;;5080222;28;20032;-67
2021/09/17 04:52:29;;;;;;;1.13;0.30;;;15.00;96.80;;;;;;5061026;28;20682;-66
2021/09/17 04:54:58;;;;;;;0.55;0.30;;;14.90;96.70;;;;;;5077951;28;20037;-68
2021/09/17 04:57:24;;;;;;;0.80;0.28;;;15.00;96.50;;;;;;5077080;28;20036;-67
2021/09/17 04:59:49;;;;;;;0.63;0.30;;;14.90;96.30;;;;;;5078382;28;20038;-67
2021/09/17 05:02:15;;;;;;;0.60;0.22;;;14.90;96.40;;;;;;5074470;28;20032;-67
2021/09/17 05:04:41;;;;;;;0.55;0.30;;;15.00;96.20;;;;;;5078390;28;20151;-67
2021/09/17 05:07:07;;;;;;;1.63;0.30;;;14.90;95.90;;;;;;5080101;28;20027;-67
2021/09/17 05:09:33;;;;;;;1.17;0.40;;;14.90;96.00;;;;;;5083529;28;20020;-66
2021/09/17 05:11:59;;;;;;;1.98;0.30;;;14.80;96.10;;;;;;5082012;28;20032;-66
2021/09/17 05:14:24;;;;;;;0.50;0.28;;;14.80;96.00;;;;;;5082282;28;20034;-67
2021/09/17 05:16:50;;;;;;;0.75;0.30;;;14.90;96.10;;;;;;5065793;28;20511;-67
2021/09/17 05:19:18;;;;;;;1.00;0.30;;;14.90;96.20;;;;;;5083194;28;20070;-66
2021/09/17 05:21:44;;;;;;;0.63;0.20;;;14.90;96.20;;;;;;5084018;28;20030;-66
2021/09/17 05:24:10;;;;;;;0.65;0.30;;;14.90;95.40;;;;;;5081019;28;20444;-66
2021/09/17 05:26:36;;;;;;;1.75;0.40;;;14.90;95.90;;;;;;5081601;28;20029;-67
2021/09/17 05:29:02;;;;;;;3.20;0.65;;;14.80;96.20;;;;;;5082773;28;20021;-66
2021/09/17 05:31:28;;;;;;;0.75;0.30;;;14.90;96.20;;;;;;5085295;28;20363;-67
2021/09/17 05:33:53;;;;;;;0.30;0.20;;;14.90;95.90;;;;;;5082950;28;20398;-66
2021/09/17 05:36:19;;;;;;;0.80;0.28;;;14.90;96.00;;;;;;5083272;28;20032;-67
2021/09/17 05:38:45;;;;;;;1.80;0.22;;;14.90;95.80;;;;;;5083020;28;20082;-67
2021/09/17 05:41:10;;;;;;;0.65;0.35;;;14.80;96.00;;;;;;5081975;28;20037;-67
2021/09/17 05:43:36;;;;;;;1.00;0.20;;;14.80;96.00;;;;;;5083700;28;20142;-65
2021/09/17 05:46:02;;;;;;;0.43;0.20;;;14.80;95.90;;;;;;5082382;28;20063;-67
2021/09/17 05:48:28;;;;;;;0.63;0.30;;;14.80;95.70;;;;;;5083172;28;20081;-66
2021/09/17 05:50:53;;;;;;;1.65;0.50;;;14.80;95.90;;;;;;5081737;28;20668;-67
2021/09/17 05:53:19;;;;;;;1.17;0.30;;;14.80;95.60;;;;;;5081772;28;20032;-67
2021/09/17 05:55:45;;;;;;;0.43;0.10;;;14.80;95.80;;;;;;5081041;28;21701;-67
2021/09/17 05:58:11;;;;;;;0.40;0.30;;;14.80;95.80;;;;;;5082566;28;20031;-67
2021/09/17 06:00:37;;;;;;;0.40;0.30;;;14.80;95.80;;;;;;5076163;28;21013;-67
2021/09/17 06:03:03;;;;;;;4.97;0.30;;;14.90;95.60;;;;;;5076112;28;20097;-67
2021/09/17 06:05:29;;;;;;;2.03;0.38;;;14.80;95.20;;;;;;5082966;28;20549;-67
2021/09/17 06:07:54;;;;;;;0.93;0.30;;;14.70;95.50;;;;;;5083461;28;20036;-67
2021/09/17 06:10:20;;;;;;;1.45;0.20;;;14.80;95.40;;;;;;5084824;28;20501;-67
2021/09/17 06:12:46;;;;;;;2.10;0.40;;;14.70;95.60;;;;;;5065559;28;20037;-67
2021/09/17 06:15:13;;;;;;;0.20;0.20;;;14.80;95.70;;;;;;5081591;28;20032;-67
2021/09/17 06:17:40;;;;;;;1.98;0.52;;;14.80;95.20;;;;;;5080478;28;20029;-67
2021/09/17 06:20:07;;;;;;;0.93;0.35;;;14.70;95.10;;;;;;5085963;28;20032;-67
2021/09/17 06:22:33;;;;;;;0.35;0.20;;;14.80;95.20;;;;;;5082583;28;20025;-67
2021/09/17 06:24:58;;;;;;;0.55;0.13;;;14.70;94.70;;;;;;5082178;28;20559;-67
2021/09/17 06:27:24;;;;;;;1.10;0.30;;;14.70;94.50;;;;;;5081937;28;20035;-68
2021/09/17 06:29:50;;;;;;;0.63;0.30;;;14.60;94.60;;;;;;5081294;28;20024;-67
2021/09/17 06:32:15;;;;;;;0.75;0.30;;;14.60;95.00;;;;;;5080923;28;20115;-67
2021/09/17 06:34:41;;;;;;;1.77;0.28;;;14.70;95.20;;;;;;5081557;28;20127;-67
2021/09/17 06:37:09;;;;;;;1.48;0.30;;;14.70;95.00;;;;;;5079773;28;20416;-67
2021/09/17 06:39:35;;;;;;;0.20;0.20;;;14.70;95.20;;;;;;5081036;28;20032;-67
2021/09/17 06:42:01;;;;;;;1.88;0.77;;;14.70;94.60;;;;;;5081921;28;20078;-67
2021/09/17 06:44:27;;;;;;;0.50;0.20;;;14.60;94.80;;;;;;5081004;28;20393;-67
2021/09/17 06:46:53;;;;;;;0.63;0.20;;;14.50;95.00;;;;;;5079597;28;20039;-67
2021/09/17 06:49:19;;;;;;;0.82;0.30;;;14.50;95.00;;;;;;5080045;28;20028;-67
2021/09/17 06:51:45;;;;;;;1.85;0.43;;;14.60;95.00;;;;;;5078865;28;20414;-67
2021/09/17 06:54:10;;;;;;;1.10;0.43;;;14.50;94.60;;;;;;5072910;28;20374;-67
2021/09/17 06:56:36;;;;;;;0.90;0.35;;;14.50;94.80;;;;;;5077581;28;20094;-67
2021/09/17 06:59:02;;;;;;;0.45;0.22;;;14.50;94.40;;;;;;5079849;28;20033;-67
2021/09/17 07:01:28;;;;;;;1.38;0.40;;;14.50;94.70;;;;;;5078227;28;20032;-67
2021/09/17 07:03:54;;;;;;;0.45;0.30;;;14.50;94.40;;;;;;5079186;28;20057;-67
2021/09/17 07:06:19;;;;;;;2.80;0.60;;;14.50;94.20;;;;;;5081979;28;20036;-67
2021/09/17 07:08:45;;;;;;;1.00;0.50;;;14.50;94.40;;;;;;5080392;28;20413;-67
2021/09/17 07:11:11;;;;;;;0.40;0.20;;;14.60;94.50;;;;;;5080369;28;20044;-67
2021/09/17 07:13:37;;;;;;;0.77;0.20;;;14.60;94.00;;;;;;5079332;28;20039;-67
2021/09/17 07:16:02;;;;;;;0.10;0.10;;;14.60;93.60;;;;;;5081021;28;20027;-67
2021/09/17 07:18:28;;;;;;;0.45;0.30;;;14.50;93.60;;;;;;5082787;28;20449;-67
2021/09/17 07:20:54;;;;;;;1.30;0.40;;;14.60;93.60;;;;;;5079547;28;20115;-67
2021/09/17 07:23:20;;;;;;;0.35;0.10;;;14.50;93.70;;;;;;5080156;28;20163;-67
2021/09/17 07:25:46;;;;;;;0.20;0.20;;;14.60;93.50;;;;;;5080896;28;20064;-67
2021/09/17 07:28:13;;;;;;;0.60;0.30;;;14.60;93.40;;;;;;5079018;28;20028;-67
2021/09/17 07:30:38;;;;;;;0.20;0.20;;;14.60;92.90;;;;;;5079574;28;20032;-67
2021/09/17 07:33:05;;;;;;;2.40;0.30;;;14.60;93.30;;;;;;5080795;28;20108;-67
2021/09/17 07:35:30;;;;;;;0.75;0.30;;;14.60;93.50;;;;;;5081339;28;20115;-67
2021/09/17 07:37:57;;;;;;;0.57;0.20;;;14.60;93.10;;;;;;5057898;28;20107;-67
2021/09/17 07:40:23;;;;;;;1.17;0.30;;;14.60;93.10;;;;;;5080316;28;20035;-67
2021/09/17 07:42:50;;;;;;;0.30;0.20;;;14.60;93.10;;;;;;5079982;28;20024;-67
2021/09/17 07:45:17;;;;;;;0.40;0.30;;;14.70;93.40;;;;;;5080091;28;20032;-66
2021/09/17 07:47:44;;;;;;;0.43;0.20;;;14.70;93.00;;;;;;5082828;28;20047;-67
2021/09/17 07:50:11;;;;;;;0.20;0.10;;;14.80;93.10;;;;;;5081148;28;20032;-67
2021/09/17 07:52:37;;;;;;;0.73;0.30;;;14.80;92.50;;;;;;5079173;28;20363;-67
2021/09/17 07:55:04;;;;;;;0.90;0.17;;;14.80;92.90;;;;;;5080565;28;20036;-67
2021/09/17 07:57:29;;;;;;;0.32;0.20;;;14.80;93.00;;;;;;5079395;28;20024;-67
2021/09/17 07:59:56;;;;;;;2.10;0.57;;;14.80;92.90;;;;;;5081740;28;20035;-67
2021/09/17 08:02:21;;;;;;;0.50;0.20;;;14.80;92.60;;;;;;5078787;28;20028;-67
2021/09/17 08:04:47;;;;;;;0.60;0.20;;;14.80;92.70;;;;;;5079364;28;20528;-67
2021/09/17 08:07:13;;;;;;;0.30;0.20;;;14.80;92.90;;;;;;5079571;28;20075;-67
2021/09/17 08:09:38;;;;;;;0.32;0.10;;;14.90;93.20;;;;;;5081946;28;20469;-67
2021/09/17 08:12:05;;;;;;;1.98;0.30;;;15.00;93.10;;;;;;5079177;28;20036;-67
2021/09/17 08:14:30;;;;;;;0.15;0.13;;;15.00;93.10;;;;;;5080994;28;20021;-67
2021/09/17 08:16:56;;;;;;;2.63;0.25;;;15.10;93.00;;;;;;5079002;28;20077;-67
2021/09/17 08:19:22;;;;;;;0.30;0.20;;;15.20;92.80;;;;;;5080725;28;21540;-67
2021/09/17 08:21:48;;;;;;;0.22;0.10;;;15.20;92.90;;;;;;5080203;28;20027;-67
2021/09/17 08:24:16;;;;;;;0.93;0.20;;;15.40;92.80;;;;;;5079056;28;20494;-67
2021/09/17 08:26:48;;;;;;;0.57;0.20;;;15.60;92.90;;;;;;5084751;28;20020;-67
2021/09/17 08:29:15;;;;;;;0.32;0.22;;;15.70;92.30;;;;;;5080803;28;20035;-67
2021/09/17 08:31:41;;;;;;;0.65;0.28;;;15.70;92.50;;;;;;5083432;28;20028;-67
2021/09/17 08:34:09;;;;;;;1.02;0.20;;;15.70;92.20;;;;;;5083092;28;20028;-67
2021/09/17 08:36:36;;;;;;;0.52;0.20;;;15.80;92.10;;;;;;5081760;28;20041;-67
2021/09/17 08:39:07;;;;;;;1.58;0.40;;;15.90;91.70;;;;;;5079119;28;20032;-67
2021/09/17 08:41:33;;;;;;;0.50;0.50;;;15.90;91.90;;;;;;5083249;28;20032;-67
2021/09/17 08:43:59;;;;;;;2.38;0.20;;;16.00;91.80;;;;;;5084252;28;20028;-67
2021/09/17 08:46:25;;;;;;;0.63;0.32;;;16.00;91.90;;;;;;5083156;28;20097;-67
2021/09/17 08:48:51;;;;;;;0.35;0.20;;;16.10;91.50;;;;;;5084090;28;20467;-67
2021/09/17 08:51:18;;;;;;;1.70;0.40;;;16.10;91.90;;;;;;5068643;28;20165;-67
2021/09/17 08:53:44;;;;;;;0.73;0.30;;;16.20;91.80;;;;;;5085041;28;20032;-67
2021/09/17 08:56:17;;;;;;;0.32;0.15;;;16.30;91.70;;;;;;5083565;28;20039;-67
2021/09/17 08:58:47;;;;;;;0.25;0.25;;;16.40;91.70;;;;;;5082962;28;20118;-67
2021/09/17 09:01:36;;;;;;;0.25;0.15;;;16.40;90.80;;;;;;5088008;28;20367;-67
2021/09/17 09:04:07;;;;;;;3.10;0.28;;;16.30;91.00;;;;;;5086055;28;20115;-67
2021/09/17 09:06:38;;;;;;;0.20;0.20;;;16.20;91.10;;;;;;5083382;28;20077;-67
2021/09/17 09:09:13;;;;;;;0.63;0.30;;;16.20;91.30;;;;;;5066303;28;20535;-67
2021/09/17 09:11:39;;;;;;;1.23;0.60;;;16.20;91.30;;;;;;5086237;28;20409;-67
2021/09/17 09:14:13;;;;;;;0.57;0.20;;;16.20;91.50;;;;;;5084490;28;20035;-67
2021/09/17 09:16:57;;;;;;;1.60;0.45;;;16.20;91.50;;;;;;5083705;28;20038;-67
2021/09/17 09:19:27;;;;;;;0.63;0.20;;;16.10;91.00;;;;;;5083307;28;20118;-67
2021/09/17 09:22:14;;;;;;;2.00;0.22;;;16.20;91.60;;;;;;5083771;28;20496;-67
2021/09/17 09:24:43;;;;;;;1.90;0.20;;;16.30;90.90;;;;;;5084808;28;20280;-67
2021/09/17 09:27:19;;;;;;;0.30;0.20;;;16.30;90.80;;;;;;5083289;28;20106;-67
2021/09/17 09:29:48;;;;;;;1.17;0.60;;;16.40;90.90;;;;;;5085962;28;20043;-67
2021/09/17 09:32:34;;;;;;;0.65;0.47;;;16.50;90.90;;;;;;5084094;28;20116;-67
2021/09/17 09:35:03;;;;;;;2.75;0.30;;;16.50;90.20;;;;;;5083320;28;20024;-67
2021/09/17 09:37:32;;;;;;;0.70;0.20;;;16.40;90.40;;;;;;5083522;28;20433;-67
2021/09/17 09:40:06;;;;;;;0.65;0.22;;;16.50;90.80;;;;;;5083417;28;20112;-67
2021/09/17 09:42:39;;;;;;;0.88;0.25;;;16.50;90.60;;;;;;5082180;28;20103;-67
2021/09/17 09:45:25;;;;;;;0.68;0.20;;;16.60;91.00;;;;;;5081016;28;20036;-67
2021/09/17 09:47:53;;;;;;;0.40;0.30;;;16.70;90.20;;;;;;5084545;28;20505;-67
2021/09/17 09:50:23;;;;;;;0.32;0.15;;;16.70;89.50;;;;;;5085354;28;20690;-67
2021/09/17 09:52:54;;;;;;;1.10;0.30;;;16.70;89.00;;;;;;5081219;28;20025;-67
2021/09/17 09:55:20;;;;;;;1.38;0.30;;;16.60;89.30;;;;;;5081759;28;20336;-67
2021/09/17 09:57:46;;;;;;;0.38;0.20;;;16.50;89.40;;;;;;5081522;28;20039;-67
2021/09/17 10:00:13;;;;;;;0.20;0.20;;;16.50;90.10;;;;;;5082688;28;20032;-67
2021/09/17 10:02:40;;;;;;;0.47;0.30;;;16.30;90.20;;;;;;5080536;28;20047;-67
2021/09/17 10:05:09;;;;;;;0.10;0.10;;;16.40;90.20;;;;;;5080857;28;20489;-68
2021/09/17 10:07:35;;;;;;;1.05;0.30;;;16.40;90.00;;;;;;5083157;28;20028;-67
2021/09/17 10:10:04;;;;;;;1.00;0.22;;;16.50;89.80;;;;;;5082617;28;20028;-67
2021/09/17 10:12:29;;;;;;;0.73;0.30;;;16.50;89.70;;;;;;5081785;28;20380;-67
2021/09/17 10:14:57;;;;;;;0.52;0.30;;;16.60;90.00;;;;;;5081783;28;20049;-67
2021/09/17 10:17:29;;;;;;;1.58;0.80;;;16.60;88.90;;;;;;5081137;28;20035;-67
2021/09/17 10:19:56;;;;;;;1.05;0.35;;;16.60;90.00;;;;;;5083329;28;20043;-67
2021/09/17 10:22:31;;;;;;;0.32;0.30;;;16.60;89.90;;;;;;5080427;28;20032;-67
2021/09/17 10:25:22;;;;;;;0.60;0.25;;;16.60;90.10;;;;;;5081768;28;20131;-67
2021/09/17 10:28:10;;;;;;;0.40;0.22;;;16.60;89.40;;;;;;5082479;28;20074;-67
2021/09/17 10:30:39;;;;;;;1.48;0.30;;;16.60;90.00;;;;;;5074976;28;20082;-67
2021/09/17 10:33:24;;;;;;;1.27;0.50;;;16.70;89.70;;;;;;5083635;28;20393;-67
2021/09/17 10:35:51;;;;;;;1.55;0.32;;;16.90;89.30;;;;;;5082149;28;20363;-67
2021/09/17 10:38:27;;;;;;;1.65;0.40;;;16.90;87.90;;;;;;5082297;28;20043;-67
2021/09/17 10:40:59;;;;;;;1.48;0.40;;;16.80;88.20;;;;;;5083458;28;20107;-67
2021/09/17 10:43:26;;;;;;;0.70;0.22;;;16.70;88.50;;;;;;5083569;28;20040;-68
2021/09/17 10:46:04;;;;;;;1.65;0.50;;;16.50;89.20;;;;;;5082021;28;20036;-67
2021/09/17 10:48:53;;;;;;;0.57;0.20;;;16.40;89.60;;;;;;5082354;28;20070;-67
2021/09/17 10:51:36;;;;;;;0.73;0.40;;;16.30;88.50;;;;;;5079672;28;20027;-67
2021/09/17 10:54:10;;;;;;;0.40;0.20;;;16.30;89.60;;;;;;5081035;28;20032;-67
2021/09/17 10:56:48;;;;;;;0.32;0.30;;;16.20;90.00;;;;;;5078587;28;20058;-67
2021/09/17 10:59:25;;;;;;;1.95;0.40;;;16.20;89.60;;;;;;5080091;28;20041;-67
2021/09/17 11:02:03;;;;;;;0.20;0.20;;;16.20;90.00;;;;;;5078170;28;20128;-67
2021/09/17 11:04:38;;;;;;;0.20;0.20;;;16.10;90.00;;;;;;5081079;28;20071;-67
2021/09/17 11:07:21;;;;;;;0.55;0.40;;;16.10;90.10;;;;;;5082117;28;20024;-66
2021/09/17 11:09:49;;;;;;;0.98;0.50;;;16.20;90.40;;;;;;5067185;28;20027;-66
2021/09/17 11:12:24;;;;;;;0.70;0.30;;;16.10;90.30;;;;;;5079561;28;20024;-67
2021/09/17 11:15:05;;;;;;;1.10;0.38;;;16.20;90.40;;;;;;5081222;28;20027;-67
2021/09/17 11:17:38;;;;;;;0.38;0.30;;;16.20;90.00;;;;;;5080070;28;20028;-67
2021/09/17 11:20:07;;;;;;;1.33;0.47;;;16.10;90.20;;;;;;5081764;28;20370;-67
2021/09/17 11:22:49;;;;;;;1.13;0.40;;;16.20;90.50;;;;;;5077971;28;20036;-67
2021/09/17 11:25:23;;;;;;;0.93;0.50;;;16.10;90.30;;;;;;5080892;28;20036;-67
2021/09/17 11:27:49;;;;;;;1.52;0.45;;;16.00;90.50;;;;;;5082084;28;20111;-67
2021/09/17 11:30:15;;;;;;;2.63;0.90;;;16.00;90.50;;;;;;5082536;28;20498;-69
2021/09/17 11:32:41;;;;;;;0.68;0.40;;;16.10;90.60;;;;;;5078429;28;20037;-68
2021/09/17 11:35:08;;;;;;;1.90;0.43;;;16.10;90.40;;;;;;5081494;28;20081;-68
2021/09/17 11:37:33;;;;;;;1.08;0.40;;;16.10;90.40;;;;;;5082485;28;20063;-68
2021/09/17 11:40:07;;;;;;;2.15;0.50;;;16.10;90.10;;;;;;5082091;28;20056;-67
2021/09/17 11:42:33;;;;;;;0.47;0.35;;;16.10;90.20;;;;;;5063010;28;20039;-67
2021/09/17 11:45:09;;;;;;;0.88;0.40;;;16.20;90.60;;;;;;5081117;28;20028;-67
2021/09/17 11:47:35;;;;;;;1.55;0.30;;;16.20;90.40;;;;;;5062446;28;20028;-67
2021/09/17 11:50:05;;;;;;;0.93;0.20;;;16.30;90.20;;;;;;5079394;28;20032;-68
2021/09/17 11:52:43;;;;;;;0.75;0.30;;;16.40;90.00;;;;;;5078131;28;20734;-67
2021/09/17 11:55:12;;;;;;;0.68;0.30;;;16.50;89.90;;;;;;5077894;28;20055;-67
2021/09/17 11:57:43;;;;;;;1.83;0.30;;;16.50;90.10;;;;;;5077977;28;20020;-68
2021/09/17 12:00:21;;;;;;;2.38;0.40;;;16.60;89.60;;;;;;5080589;28;20028;-67
2021/09/17 12:02:55;;;;;;;0.68;0.47;;;16.60;89.80;;;;;;5081137;28;20450;-67
2021/09/17 12:05:28;;;;;;;1.88;0.50;;;16.70;90.00;;;;;;5075100;28;20032;-67
2021/09/17 12:07:54;;;;;;;1.67;0.40;;;16.80;90.10;;;;;;5076210;28;20025;-67
2021/09/17 12:10:35;;;;;;;1.13;0.40;;;16.90;89.50;;;;;;5061923;28;20027;-67
2021/09/17 12:13:07;;;;;;;2.05;0.40;;;16.90;89.10;;;;;;5077404;28;20020;-67
2021/09/17 12:15:38;;;;;;;0.60;0.40;;;16.80;89.20;;;;;;5080457;28;20032;-67
2021/09/17 12:18:07;;;;;;;0.82;0.30;;;16.80;88.70;;;;;;5084100;28;20024;-67
2021/09/17 12:20:54;;;;;;;2.97;0.50;;;16.70;89.50;;;;;;5083404;28;20036;-67
2021/09/17 12:23:22;;;;;;;1.77;0.38;;;16.60;89.50;;;;;;5082618;28;20477;-67
2021/09/17 12:25:50;;;;;;;1.88;0.40;;;16.50;89.40;;;;;;5083206;28;20043;-67
2021/09/17 12:28:21;;;;;;;0.95;0.45;;;16.50;89.40;;;;;;5086077;28;20023;-67
2021/09/17 12:30:49;;;;;;;1.65;0.68;;;16.70;89.60;;;;;;5085413;28;20024;-67
2021/09/17 12:33:23;;;;;;;1.45;0.40;;;16.80;88.90;;;;;;5086021;28;20063;-67
2021/09/17 12:35:51;;;;;;;1.55;0.40;;;16.90;87.40;;;;;;5081046;28;20032;-67
2021/09/17 12:38:20;;;;;;;0.73;0.32;;;17.00;88.00;;;;;;5067741;28;20477;-67
2021/09/17 12:40:48;;;;;;;0.98;0.47;;;16.90;87.10;;;;;;5084561;28;20046;-67
2021/09/17 12:43:22;;;;;;;0.95;0.45;;;17.00;86.70;;;;;;5082933;28;20036;-67
2021/09/17 12:46:10;;;;;;;1.15;0.43;;;17.00;87.10;;;;;;5080758;28;20027;-67
2021/09/17 12:48:39;;;;;;;2.50;0.50;;;17.20;85.20;;;;;;5082928;28;20058;-67
2021/09/17 12:51:06;;;;;;;1.38;0.40;;;17.20;83.50;;;;;;5083930;28;20037;-67